sensor_id;sensor_type;location;lat;lon;timestamp;P1;durP1;ratioP1;P2;durP2;ratioP2
49536;SDS011;74893;30.696;104.058;2024-02-15T00:01:12;17.00;;;7.32;;
49536;SDS011;74893;30.696;104.058;2024-02-15T00:03:39;12.35;;;6.63;;
49536;SDS011;74893;30.696;104.058;2024-02-15T00:06:06;11.18;;;6.60;;
49536;SDS011;74893;30.696;104.058;2024-02-15T00:08:32;16.27;;;7.50;;
49536;SDS011;74893;30.696;104.058;2024-02-15T00:11:00;14.57;;;6.97;;
49536;SDS011;74893;30.696;104.058;2024-02-15T00:13:28;12.77;;;6.85;;
49536;SDS011;74893;30.696;104.058;2024-02-15T00:15:56;12.45;;;6.68;;
49536;SDS011;74893;30.696;104.058;2024-02-15T00:18:23;12.93;;;6.13;;
49536;SDS011;74893;30.696;104.058;2024-02-15T00:20:50;15.20;;;8.00;;
49536;SDS011;74893;30.696;104.058;2024-02-15T00:23:17;14.73;;;7.00;;
49536;SDS011;74893;30.696;104.058;2024-02-15T00:25:44;15.40;;;7.40;;
49536;SDS011;74893;30.696;104.058;2024-02-15T00:28:11;12.65;;;6.88;;
49536;SDS011;74893;30.696;104.058;2024-02-15T00:30:38;14.48;;;6.25;;
49536;SDS011;74893;30.696;104.058;2024-02-15T00:33:05;15.50;;;6.97;;
49536;SDS011;74893;30.696;104.058;2024-02-15T00:35:33;15.18;;;6.90;;
49536;SDS011;74893;30.696;104.058;2024-02-15T00:38:00;13.88;;;7.18;;
49536;SDS011;74893;30.696;104.058;2024-02-15T00:40:26;14.98;;;7.70;;
49536;SDS011;74893;30.696;104.058;2024-02-15T00:42:53;16.25;;;7.30;;
49536;SDS011;74893;30.696;104.058;2024-02-15T00:45:20;14.23;;;7.00;;
49536;SDS011;74893;30.696;104.058;2024-02-15T00:47:47;15.93;;;7.22;;
49536;SDS011;74893;30.696;104.058;2024-02-15T00:50:15;15.07;;;7.70;;
49536;SDS011;74893;30.696;104.058;2024-02-15T00:52:43;14.88;;;7.50;;
49536;SDS011;74893;30.696;104.058;2024-02-15T00:55:10;17.58;;;8.25;;
49536;SDS011;74893;30.696;104.058;2024-02-15T00:57:36;10.05;;;6.50;;
49536;SDS011;74893;30.696;104.058;2024-02-15T01:00:04;17.30;;;7.65;;
49536;SDS011;74893;30.696;104.058;2024-02-15T01:02:33;13.65;;;7.30;;
49536;SDS011;74893;30.696;104.058;2024-02-15T01:05:01;12.63;;;6.95;;
49536;SDS011;74893;30.696;104.058;2024-02-15T01:07:28;14.27;;;7.10;;
49536;SDS011;74893;30.696;104.058;2024-02-15T01:09:55;14.93;;;7.65;;
49536;SDS011;74893;30.696;104.058;2024-02-15T01:12:22;15.27;;;7.63;;
49536;SDS011;74893;30.696;104.058;2024-02-15T01:14:49;15.07;;;8.55;;
49536;SDS011;74893;30.696;104.058;2024-02-15T01:17:16;14.23;;;7.75;;
49536;SDS011;74893;30.696;104.058;2024-02-15T01:19:43;15.48;;;8.32;;
49536;SDS011;74893;30.696;104.058;2024-02-15T01:22:10;18.02;;;8.45;;
49536;SDS011;74893;30.696;104.058;2024-02-15T01:24:38;17.67;;;9.07;;
49536;SDS011;74893;30.696;104.058;2024-02-15T01:27:05;15.43;;;8.85;;
49536;SDS011;74893;30.696;104.058;2024-02-15T01:29:32;16.75;;;9.55;;
49536;SDS011;74893;30.696;104.058;2024-02-15T01:32:00;17.80;;;9.30;;
49536;SDS011;74893;30.696;104.058;2024-02-15T01:34:30;18.70;;;9.68;;
49536;SDS011;74893;30.696;104.058;2024-02-15T01:36:57;20.98;;;9.43;;
49536;SDS011;74893;30.696;104.058;2024-02-15T01:39:25;19.15;;;10.35;;
49536;SDS011;74893;30.696;104.058;2024-02-15T01:41:52;21.65;;;10.57;;
49536;SDS011;74893;30.696;104.058;2024-02-15T01:44:22;23.30;;;11.10;;
49536;SDS011;74893;30.696;104.058;2024-02-15T01:46:50;22.60;;;11.40;;
49536;SDS011;74893;30.696;104.058;2024-02-15T01:49:21;19.63;;;11.50;;
49536;SDS011;74893;30.696;104.058;2024-02-15T01:51:49;20.77;;;10.88;;
49536;SDS011;74893;30.696;104.058;2024-02-15T01:54:22;22.83;;;11.35;;
49536;SDS011;74893;30.696;104.058;2024-02-15T01:56:49;30.92;;;11.98;;
49536;SDS011;74893;30.696;104.058;2024-02-15T01:59:19;21.23;;;12.00;;
49536;SDS011;74893;30.696;104.058;2024-02-15T02:01:49;25.98;;;12.32;;
49536;SDS011;74893;30.696;104.058;2024-02-15T02:04:16;26.13;;;11.90;;
49536;SDS011;74893;30.696;104.058;2024-02-15T02:06:46;24.50;;;13.13;;
49536;SDS011;74893;30.696;104.058;2024-02-15T02:09:13;25.17;;;12.57;;
49536;SDS011;74893;30.696;104.058;2024-02-15T02:11:46;24.83;;;13.13;;
49536;SDS011;74893;30.696;104.058;2024-02-15T02:14:13;27.30;;;13.80;;
49536;SDS011;74893;30.696;104.058;2024-02-15T02:16:41;27.58;;;13.75;;
49536;SDS011;74893;30.696;104.058;2024-02-15T02:19:09;27.63;;;13.88;;
49536;SDS011;74893;30.696;104.058;2024-02-15T02:21:39;22.65;;;12.70;;
49536;SDS011;74893;30.696;104.058;2024-02-15T02:24:13;27.40;;;13.93;;
49536;SDS011;74893;30.696;104.058;2024-02-15T02:26:40;28.00;;;12.80;;
49536;SDS011;74893;30.696;104.058;2024-02-15T02:29:07;29.10;;;13.38;;
49536;SDS011;74893;30.696;104.058;2024-02-15T02:31:35;26.15;;;14.25;;
49536;SDS011;74893;30.696;104.058;2024-02-15T02:34:02;25.50;;;12.95;;
49536;SDS011;74893;30.696;104.058;2024-02-15T02:36:29;24.40;;;13.43;;
49536;SDS011;74893;30.696;104.058;2024-02-15T02:38:56;22.90;;;12.60;;
49536;SDS011;74893;30.696;104.058;2024-02-15T02:41:29;23.65;;;12.80;;
49536;SDS011;74893;30.696;104.058;2024-02-15T02:43:56;22.95;;;13.13;;
49536;SDS011;74893;30.696;104.058;2024-02-15T02:46:23;27.33;;;13.73;;
49536;SDS011;74893;30.696;104.058;2024-02-15T02:48:50;22.80;;;12.75;;
49536;SDS011;74893;30.696;104.058;2024-02-15T02:51:17;23.33;;;13.25;;
49536;SDS011;74893;30.696;104.058;2024-02-15T02:53:44;20.83;;;12.05;;
49536;SDS011;74893;30.696;104.058;2024-02-15T02:56:13;23.13;;;12.30;;
49536;SDS011;74893;30.696;104.058;2024-02-15T02:58:40;26.30;;;13.70;;
49536;SDS011;74893;30.696;104.058;2024-02-15T03:01:10;25.02;;;12.88;;
49536;SDS011;74893;30.696;104.058;2024-02-15T03:03:38;24.52;;;13.15;;
49536;SDS011;74893;30.696;104.058;2024-02-15T03:06:05;23.73;;;12.18;;
49536;SDS011;74893;30.696;104.058;2024-02-15T03:08:35;22.35;;;11.57;;
49536;SDS011;74893;30.696;104.058;2024-02-15T03:11:03;24.88;;;12.65;;
49536;SDS011;74893;30.696;104.058;2024-02-15T03:13:29;21.50;;;12.88;;
49536;SDS011;74893;30.696;104.058;2024-02-15T03:15:59;25.27;;;13.05;;
49536;SDS011;74893;30.696;104.058;2024-02-15T03:18:26;21.63;;;12.43;;
49536;SDS011;74893;30.696;104.058;2024-02-15T03:20:53;24.02;;;12.10;;
49536;SDS011;74893;30.696;104.058;2024-02-15T03:23:24;23.95;;;12.73;;
49536;SDS011;74893;30.696;104.058;2024-02-15T03:25:51;23.20;;;12.75;;
49536;SDS011;74893;30.696;104.058;2024-02-15T03:28:19;28.77;;;12.77;;
49536;SDS011;74893;30.696;104.058;2024-02-15T03:30:55;28.55;;;13.48;;
49536;SDS011;74893;30.696;104.058;2024-02-15T03:33:21;33.00;;;12.80;;
49536;SDS011;74893;30.696;104.058;2024-02-15T03:35:53;30.75;;;13.32;;
49536;SDS011;74893;30.696;104.058;2024-02-15T03:38:25;30.55;;;14.15;;
49536;SDS011;74893;30.696;104.058;2024-02-15T03:40:57;28.98;;;12.45;;
49536;SDS011;74893;30.696;104.058;2024-02-15T03:43:24;30.42;;;12.90;;
49536;SDS011;74893;30.696;104.058;2024-02-15T03:45:53;33.95;;;13.73;;
49536;SDS011;74893;30.696;104.058;2024-02-15T03:48:20;26.88;;;13.65;;
49536;SDS011;74893;30.696;104.058;2024-02-15T03:50:47;25.90;;;12.30;;
49536;SDS011;74893;30.696;104.058;2024-02-15T03:53:14;28.38;;;12.82;;
49536;SDS011;74893;30.696;104.058;2024-02-15T03:55:41;26.80;;;12.00;;
49536;SDS011;74893;30.696;104.058;2024-02-15T03:58:08;31.55;;;12.45;;
49536;SDS011;74893;30.696;104.058;2024-02-15T04:00:35;29.02;;;12.88;;
49536;SDS011;74893;30.696;104.058;2024-02-15T04:03:07;27.27;;;11.90;;
49536;SDS011;74893;30.696;104.058;2024-02-15T04:05:34;29.02;;;12.02;;
49536;SDS011;74893;30.696;104.058;2024-02-15T04:08:01;27.98;;;13.23;;
49536;SDS011;74893;30.696;104.058;2024-02-15T04:10:30;24.80;;;12.15;;
49536;SDS011;74893;30.696;104.058;2024-02-15T04:12:57;29.52;;;12.13;;
49536;SDS011;74893;30.696;104.058;2024-02-15T04:15:24;32.50;;;11.90;;
49536;SDS011;74893;30.696;104.058;2024-02-15T04:17:51;33.95;;;12.10;;
49536;SDS011;74893;30.696;104.058;2024-02-15T04:20:22;31.45;;;12.13;;
49536;SDS011;74893;30.696;104.058;2024-02-15T04:22:48;29.52;;;11.32;;
49536;SDS011;74893;30.696;104.058;2024-02-15T04:25:15;23.67;;;10.90;;
49536;SDS011;74893;30.696;104.058;2024-02-15T04:27:44;28.02;;;12.07;;
49536;SDS011;74893;30.696;104.058;2024-02-15T04:30:15;25.63;;;11.93;;
49536;SDS011;74893;30.696;104.058;2024-02-15T04:32:42;24.60;;;11.65;;
49536;SDS011;74893;30.696;104.058;2024-02-15T04:35:09;26.83;;;12.00;;
49536;SDS011;74893;30.696;104.058;2024-02-15T04:37:36;23.98;;;11.25;;
49536;SDS011;74893;30.696;104.058;2024-02-15T04:40:03;23.65;;;12.13;;
49536;SDS011;74893;30.696;104.058;2024-02-15T04:42:39;23.60;;;12.10;;
49536;SDS011;74893;30.696;104.058;2024-02-15T04:45:07;22.20;;;11.05;;
49536;SDS011;74893;30.696;104.058;2024-02-15T04:47:36;26.77;;;11.93;;
49536;SDS011;74893;30.696;104.058;2024-02-15T04:50:03;19.77;;;10.57;;
49536;SDS011;74893;30.696;104.058;2024-02-15T04:52:32;27.00;;;11.70;;
49536;SDS011;74893;30.696;104.058;2024-02-15T04:55:02;24.60;;;11.43;;
49536;SDS011;74893;30.696;104.058;2024-02-15T04:57:31;22.88;;;10.88;;
49536;SDS011;74893;30.696;104.058;2024-02-15T05:00:00;22.02;;;9.82;;
49536;SDS011;74893;30.696;104.058;2024-02-15T05:02:27;22.90;;;10.98;;
49536;SDS011;74893;30.696;104.058;2024-02-15T05:04:53;24.73;;;10.50;;
49536;SDS011;74893;30.696;104.058;2024-02-15T05:07:22;29.52;;;10.65;;
49536;SDS011;74893;30.696;104.058;2024-02-15T05:09:49;23.83;;;10.68;;
49536;SDS011;74893;30.696;104.058;2024-02-15T05:12:23;21.45;;;10.23;;
49536;SDS011;74893;30.696;104.058;2024-02-15T05:14:51;26.38;;;9.82;;
49536;SDS011;74893;30.696;104.058;2024-02-15T05:17:18;22.45;;;9.90;;
49536;SDS011;74893;30.696;104.058;2024-02-15T05:19:47;21.35;;;9.70;;
49536;SDS011;74893;30.696;104.058;2024-02-15T05:22:14;20.65;;;10.07;;
49536;SDS011;74893;30.696;104.058;2024-02-15T05:24:41;18.52;;;9.23;;
49536;SDS011;74893;30.696;104.058;2024-02-15T05:27:08;17.05;;;9.38;;
49536;SDS011;74893;30.696;104.058;2024-02-15T05:29:38;19.08;;;9.50;;
49536;SDS011;74893;30.696;104.058;2024-02-15T05:32:07;34.45;;;16.83;;
49536;SDS011;74893;30.696;104.058;2024-02-15T05:34:36;132.75;;;67.10;;
49536;SDS011;74893;30.696;104.058;2024-02-15T05:37:05;79.22;;;39.88;;
49536;SDS011;74893;30.696;104.058;2024-02-15T05:39:36;66.60;;;33.60;;
49536;SDS011;74893;30.696;104.058;2024-02-15T05:42:03;56.80;;;29.70;;
49536;SDS011;74893;30.696;104.058;2024-02-15T05:44:31;49.40;;;26.58;;
49536;SDS011;74893;30.696;104.058;2024-02-15T05:47:00;43.22;;;24.00;;
49536;SDS011;74893;30.696;104.058;2024-02-15T05:49:27;41.30;;;21.75;;
49536;SDS011;74893;30.696;104.058;2024-02-15T05:51:54;39.75;;;20.45;;
49536;SDS011;74893;30.696;104.058;2024-02-15T05:54:25;38.60;;;19.75;;
49536;SDS011;74893;30.696;104.058;2024-02-15T05:56:57;32.80;;;17.83;;
49536;SDS011;74893;30.696;104.058;2024-02-15T05:59:26;32.22;;;16.42;;
49536;SDS011;74893;30.696;104.058;2024-02-15T06:01:53;28.08;;;15.90;;
49536;SDS011;74893;30.696;104.058;2024-02-15T06:04:19;31.05;;;15.40;;
49536;SDS011;74893;30.696;104.058;2024-02-15T06:06:48;29.83;;;14.88;;
49536;SDS011;74893;30.696;104.058;2024-02-15T06:09:18;27.05;;;14.65;;
49536;SDS011;74893;30.696;104.058;2024-02-15T06:11:47;24.60;;;13.77;;
49536;SDS011;74893;30.696;104.058;2024-02-15T06:14:17;24.45;;;11.52;;
49536;SDS011;74893;30.696;104.058;2024-02-15T06:16:45;24.52;;;11.07;;
49536;SDS011;74893;30.696;104.058;2024-02-15T06:19:13;20.50;;;10.35;;
49536;SDS011;74893;30.696;104.058;2024-02-15T06:21:43;22.23;;;10.27;;
49536;SDS011;74893;30.696;104.058;2024-02-15T06:24:10;25.05;;;11.70;;
49536;SDS011;74893;30.696;104.058;2024-02-15T06:26:37;22.45;;;11.98;;
49536;SDS011;74893;30.696;104.058;2024-02-15T06:29:04;24.55;;;12.68;;
49536;SDS011;74893;30.696;104.058;2024-02-15T06:31:49;19.65;;;9.88;;
49536;SDS011;74893;30.696;104.058;2024-02-15T06:34:34;21.48;;;10.90;;
49536;SDS011;74893;30.696;104.058;2024-02-15T06:37:36;19.85;;;9.50;;
49536;SDS011;74893;30.696;104.058;2024-02-15T06:40:26;17.48;;;8.98;;
49536;SDS011;74893;30.696;104.058;2024-02-15T06:42:54;16.48;;;8.57;;
49536;SDS011;74893;30.696;104.058;2024-02-15T06:45:24;18.60;;;9.57;;
49536;SDS011;74893;30.696;104.058;2024-02-15T06:47:53;16.25;;;8.48;;
49536;SDS011;74893;30.696;104.058;2024-02-15T06:50:23;15.82;;;8.70;;
49536;SDS011;74893;30.696;104.058;2024-02-15T06:52:55;16.45;;;9.00;;
49536;SDS011;74893;30.696;104.058;2024-02-15T06:55:25;16.63;;;8.75;;
49536;SDS011;74893;30.696;104.058;2024-02-15T06:57:53;14.30;;;7.78;;
49536;SDS011;74893;30.696;104.058;2024-02-15T07:00:25;16.42;;;8.30;;
49536;SDS011;74893;30.696;104.058;2024-02-15T07:02:55;14.43;;;8.63;;
49536;SDS011;74893;30.696;104.058;2024-02-15T07:05:22;15.43;;;7.72;;
49536;SDS011;74893;30.696;104.058;2024-02-15T07:07:52;16.05;;;8.32;;
49536;SDS011;74893;30.696;104.058;2024-02-15T07:10:22;16.10;;;7.40;;
49536;SDS011;74893;30.696;104.058;2024-02-15T07:12:51;17.95;;;8.07;;
49536;SDS011;74893;30.696;104.058;2024-02-15T07:15:18;15.82;;;8.38;;
49536;SDS011;74893;30.696;104.058;2024-02-15T07:17:45;18.50;;;8.32;;
49536;SDS011;74893;30.696;104.058;2024-02-15T07:20:14;15.43;;;7.80;;
49536;SDS011;74893;30.696;104.058;2024-02-15T07:22:45;14.02;;;7.85;;
49536;SDS011;74893;30.696;104.058;2024-02-15T07:25:15;14.48;;;7.72;;
49536;SDS011;74893;30.696;104.058;2024-02-15T07:27:45;15.82;;;7.13;;
49536;SDS011;74893;30.696;104.058;2024-02-15T07:30:14;16.02;;;7.60;;
49536;SDS011;74893;30.696;104.058;2024-02-15T07:32:41;16.70;;;7.78;;
49536;SDS011;74893;30.696;104.058;2024-02-15T07:35:08;15.13;;;8.23;;
49536;SDS011;74893;30.696;104.058;2024-02-15T07:37:36;13.85;;;7.63;;
49536;SDS011;74893;30.696;104.058;2024-02-15T07:40:11;15.70;;;7.75;;
49536;SDS011;74893;30.696;104.058;2024-02-15T07:42:43;15.45;;;7.15;;
49536;SDS011;74893;30.696;104.058;2024-02-15T07:45:12;13.05;;;7.22;;
49536;SDS011;74893;30.696;104.058;2024-02-15T07:47:39;17.77;;;8.27;;
49536;SDS011;74893;30.696;104.058;2024-02-15T07:50:06;12.35;;;7.35;;
49536;SDS011;74893;30.696;104.058;2024-02-15T07:52:35;13.27;;;6.93;;
49536;SDS011;74893;30.696;104.058;2024-02-15T07:55:05;14.45;;;7.45;;
49536;SDS011;74893;30.696;104.058;2024-02-15T07:57:35;15.20;;;7.13;;
49536;SDS011;74893;30.696;104.058;2024-02-15T08:00:02;14.50;;;7.75;;
49536;SDS011;74893;30.696;104.058;2024-02-15T08:02:37;12.32;;;7.00;;
49536;SDS011;74893;30.696;104.058;2024-02-15T08:05:09;13.07;;;7.05;;
49536;SDS011;74893;30.696;104.058;2024-02-15T08:07:38;10.52;;;6.65;;
49536;SDS011;74893;30.696;104.058;2024-02-15T08:10:08;12.88;;;6.80;;
49536;SDS011;74893;30.696;104.058;2024-02-15T08:12:39;11.38;;;6.78;;
49536;SDS011;74893;30.696;104.058;2024-02-15T08:15:09;14.90;;;7.50;;
49536;SDS011;74893;30.696;104.058;2024-02-15T08:17:43;11.35;;;6.57;;
49536;SDS011;74893;30.696;104.058;2024-02-15T08:20:14;15.85;;;7.20;;
49536;SDS011;74893;30.696;104.058;2024-02-15T08:22:46;13.80;;;7.25;;
49536;SDS011;74893;30.696;104.058;2024-02-15T08:25:14;13.32;;;7.60;;
49536;SDS011;74893;30.696;104.058;2024-02-15T08:28:03;12.45;;;6.80;;
49536;SDS011;74893;30.696;104.058;2024-02-15T08:30:32;12.00;;;6.93;;
49536;SDS011;74893;30.696;104.058;2024-02-15T08:33:03;13.15;;;7.30;;
49536;SDS011;74893;30.696;104.058;2024-02-15T08:35:31;12.85;;;6.93;;
49536;SDS011;74893;30.696;104.058;2024-02-15T08:37:58;13.18;;;7.68;;
49536;SDS011;74893;30.696;104.058;2024-02-15T08:40:25;12.98;;;7.35;;
49536;SDS011;74893;30.696;104.058;2024-02-15T08:42:53;11.50;;;7.07;;
49536;SDS011;74893;30.696;104.058;2024-02-15T08:45:21;12.38;;;7.15;;
49536;SDS011;74893;30.696;104.058;2024-02-15T08:47:48;11.60;;;6.45;;
49536;SDS011;74893;30.696;104.058;2024-02-15T08:50:18;12.90;;;6.85;;
49536;SDS011;74893;30.696;104.058;2024-02-15T08:52:48;13.63;;;7.15;;
49536;SDS011;74893;30.696;104.058;2024-02-15T08:55:18;14.20;;;7.28;;
49536;SDS011;74893;30.696;104.058;2024-02-15T08:57:49;13.75;;;6.90;;
49536;SDS011;74893;30.696;104.058;2024-02-15T09:00:19;13.98;;;7.07;;
49536;SDS011;74893;30.696;104.058;2024-02-15T09:02:52;13.80;;;7.05;;
49536;SDS011;74893;30.696;104.058;2024-02-15T09:05:19;12.77;;;6.97;;
49536;SDS011;74893;30.696;104.058;2024-02-15T09:07:47;11.57;;;7.40;;
49536;SDS011;74893;30.696;104.058;2024-02-15T09:10:18;13.88;;;6.63;;
49536;SDS011;74893;30.696;104.058;2024-02-15T09:12:51;11.98;;;6.63;;
49536;SDS011;74893;30.696;104.058;2024-02-15T09:15:18;12.90;;;6.72;;
49536;SDS011;74893;30.696;104.058;2024-02-15T09:17:47;12.48;;;6.95;;
49536;SDS011;74893;30.696;104.058;2024-02-15T09:20:15;14.13;;;7.38;;
49536;SDS011;74893;30.696;104.058;2024-02-15T09:22:51;11.90;;;7.47;;
49536;SDS011;74893;30.696;104.058;2024-02-15T09:25:20;11.60;;;6.95;;
49536;SDS011;74893;30.696;104.058;2024-02-15T09:27:52;14.15;;;6.97;;
49536;SDS011;74893;30.696;104.058;2024-02-15T09:30:23;13.13;;;6.97;;
49536;SDS011;74893;30.696;104.058;2024-02-15T09:32:53;11.88;;;7.32;;
49536;SDS011;74893;30.696;104.058;2024-02-15T09:35:20;12.25;;;6.90;;
49536;SDS011;74893;30.696;104.058;2024-02-15T09:37:48;13.70;;;7.68;;
49536;SDS011;74893;30.696;104.058;2024-02-15T09:40:16;14.55;;;7.30;;
49536;SDS011;74893;30.696;104.058;2024-02-15T09:42:44;13.18;;;7.28;;
49536;SDS011;74893;30.696;104.058;2024-02-15T09:45:11;12.23;;;7.15;;
49536;SDS011;74893;30.696;104.058;2024-02-15T09:47:40;13.88;;;7.57;;
49536;SDS011;74893;30.696;104.058;2024-02-15T09:50:17;14.73;;;8.48;;
49536;SDS011;74893;30.696;104.058;2024-02-15T09:52:51;12.18;;;7.05;;
49536;SDS011;74893;30.696;104.058;2024-02-15T09:55:22;13.02;;;7.00;;
49536;SDS011;74893;30.696;104.058;2024-02-15T09:57:53;12.27;;;6.68;;
49536;SDS011;74893;30.696;104.058;2024-02-15T10:00:31;13.68;;;7.47;;
49536;SDS011;74893;30.696;104.058;2024-02-15T10:03:00;13.55;;;7.35;;
49536;SDS011;74893;30.696;104.058;2024-02-15T10:05:29;13.18;;;6.97;;
49536;SDS011;74893;30.696;104.058;2024-02-15T10:07:56;12.70;;;7.65;;
49536;SDS011;74893;30.696;104.058;2024-02-15T10:10:26;16.95;;;7.63;;
49536;SDS011;74893;30.696;104.058;2024-02-15T10:12:54;11.30;;;7.20;;
49536;SDS011;74893;30.696;104.058;2024-02-15T10:15:31;14.35;;;7.22;;
49536;SDS011;74893;30.696;104.058;2024-02-15T10:17:59;13.27;;;7.05;;
49536;SDS011;74893;30.696;104.058;2024-02-15T10:20:41;12.68;;;6.72;;
49536;SDS011;74893;30.696;104.058;2024-02-15T10:23:12;12.30;;;6.93;;
49536;SDS011;74893;30.696;104.058;2024-02-15T10:25:43;16.52;;;6.88;;
49536;SDS011;74893;30.696;104.058;2024-02-15T10:28:10;13.40;;;7.00;;
49536;SDS011;74893;30.696;104.058;2024-02-15T10:30:38;12.32;;;6.90;;
49536;SDS011;74893;30.696;104.058;2024-02-15T10:33:17;12.60;;;7.18;;
49536;SDS011;74893;30.696;104.058;2024-02-15T10:35:50;11.43;;;6.38;;
49536;SDS011;74893;30.696;104.058;2024-02-15T10:38:35;15.32;;;6.72;;
49536;SDS011;74893;30.696;104.058;2024-02-15T10:41:08;12.07;;;6.68;;
49536;SDS011;74893;30.696;104.058;2024-02-15T10:43:37;11.80;;;6.53;;
49536;SDS011;74893;30.696;104.058;2024-02-15T10:46:04;11.93;;;6.72;;
49536;SDS011;74893;30.696;104.058;2024-02-15T10:48:35;13.63;;;7.03;;
49536;SDS011;74893;30.696;104.058;2024-02-15T10:51:03;11.68;;;6.95;;
49536;SDS011;74893;30.696;104.058;2024-02-15T10:53:35;11.98;;;6.35;;
49536;SDS011;74893;30.696;104.058;2024-02-15T10:56:12;11.82;;;6.53;;
49536;SDS011;74893;30.696;104.058;2024-02-15T10:58:55;15.40;;;7.28;;
49536;SDS011;74893;30.696;104.058;2024-02-15T11:01:31;12.55;;;7.53;;
49536;SDS011;74893;30.696;104.058;2024-02-15T11:04:02;12.25;;;7.03;;
49536;SDS011;74893;30.696;104.058;2024-02-15T11:06:43;10.98;;;6.93;;
49536;SDS011;74893;30.696;104.058;2024-02-15T11:09:10;12.52;;;6.88;;
49536;SDS011;74893;30.696;104.058;2024-02-15T11:11:39;11.18;;;6.60;;
49536;SDS011;74893;30.696;104.058;2024-02-15T11:17:00;15.43;;;7.75;;
49536;SDS011;74893;30.696;104.058;2024-02-15T11:22:07;12.70;;;7.90;;
49536;SDS011;74893;30.696;104.058;2024-02-15T11:24:36;15.40;;;8.85;;
49536;SDS011;74893;30.696;104.058;2024-02-15T11:27:04;14.70;;;8.50;;
49536;SDS011;74893;30.696;104.058;2024-02-15T11:29:52;16.08;;;8.48;;
49536;SDS011;74893;30.696;104.058;2024-02-15T11:32:34;16.85;;;8.60;;
49536;SDS011;74893;30.696;104.058;2024-02-15T11:35:23;14.60;;;8.25;;
49536;SDS011;74893;30.696;104.058;2024-02-15T11:37:57;17.17;;;9.25;;
49536;SDS011;74893;30.696;104.058;2024-02-15T11:40:59;15.75;;;8.35;;
49536;SDS011;74893;30.696;104.058;2024-02-15T11:49:00;15.52;;;8.20;;
49536;SDS011;74893;30.696;104.058;2024-02-15T11:54:08;13.18;;;7.80;;
49536;SDS011;74893;30.696;104.058;2024-02-15T11:59:13;14.85;;;8.98;;
49536;SDS011;74893;30.696;104.058;2024-02-15T12:01:57;15.65;;;7.95;;
49536;SDS011;74893;30.696;104.058;2024-02-15T12:04:43;17.27;;;8.02;;
49536;SDS011;74893;30.696;104.058;2024-02-15T12:07:32;13.95;;;7.82;;
49536;SDS011;74893;30.696;104.058;2024-02-15T12:10:18;17.10;;;8.27;;
49536;SDS011;74893;30.696;104.058;2024-02-15T12:13:04;13.05;;;8.20;;
49536;SDS011;74893;30.696;104.058;2024-02-15T12:15:58;13.65;;;7.90;;
49536;SDS011;74893;30.696;104.058;2024-02-15T12:18:44;11.85;;;6.47;;
49536;SDS011;74893;30.696;104.058;2024-02-15T12:21:14;14.25;;;7.88;;
49536;SDS011;74893;30.696;104.058;2024-02-15T12:23:43;14.23;;;7.45;;
49536;SDS011;74893;30.696;104.058;2024-02-15T12:26:13;13.77;;;7.47;;
49536;SDS011;74893;30.696;104.058;2024-02-15T12:28:44;12.68;;;7.60;;
49536;SDS011;74893;30.696;104.058;2024-02-15T12:31:20;13.85;;;7.72;;
49536;SDS011;74893;30.696;104.058;2024-02-15T12:33:59;13.57;;;7.78;;
49536;SDS011;74893;30.696;104.058;2024-02-15T12:36:26;12.40;;;7.10;;
49536;SDS011;74893;30.696;104.058;2024-02-15T12:39:05;14.65;;;7.40;;
49536;SDS011;74893;30.696;104.058;2024-02-15T12:41:47;13.68;;;7.13;;
49536;SDS011;74893;30.696;104.058;2024-02-15T12:44:19;13.85;;;7.28;;
49536;SDS011;74893;30.696;104.058;2024-02-15T12:46:46;13.93;;;7.45;;
49536;SDS011;74893;30.696;104.058;2024-02-15T12:51:50;14.00;;;7.25;;
49536;SDS011;74893;30.696;104.058;2024-02-15T12:54:22;11.80;;;6.65;;
49536;SDS011;74893;30.696;104.058;2024-02-15T12:56:52;11.05;;;7.10;;
49536;SDS011;74893;30.696;104.058;2024-02-15T12:59:39;11.63;;;6.70;;
49536;SDS011;74893;30.696;104.058;2024-02-15T13:02:09;11.13;;;6.28;;
49536;SDS011;74893;30.696;104.058;2024-02-15T13:04:40;14.55;;;7.40;;
49536;SDS011;74893;30.696;104.058;2024-02-15T13:07:07;14.10;;;6.72;;
49536;SDS011;74893;30.696;104.058;2024-02-15T13:09:34;11.93;;;7.32;;
49536;SDS011;74893;30.696;104.058;2024-02-15T13:12:07;12.15;;;6.25;;
49536;SDS011;74893;30.696;104.058;2024-02-15T13:14:33;11.00;;;6.50;;
49536;SDS011;74893;30.696;104.058;2024-02-15T13:17:00;11.20;;;6.93;;
49536;SDS011;74893;30.696;104.058;2024-02-15T13:19:27;11.65;;;6.43;;
49536;SDS011;74893;30.696;104.058;2024-02-15T13:21:57;14.70;;;6.32;;
49536;SDS011;74893;30.696;104.058;2024-02-15T13:24:27;12.02;;;6.10;;
49536;SDS011;74893;30.696;104.058;2024-02-15T13:26:54;10.68;;;5.85;;
49536;SDS011;74893;30.696;104.058;2024-02-15T13:29:21;10.85;;;6.20;;
49536;SDS011;74893;30.696;104.058;2024-02-15T13:31:51;13.48;;;6.60;;
49536;SDS011;74893;30.696;104.058;2024-02-15T13:34:22;10.65;;;6.15;;
49536;SDS011;74893;30.696;104.058;2024-02-15T13:36:49;13.20;;;6.40;;
49536;SDS011;74893;30.696;104.058;2024-02-15T13:39:16;11.20;;;6.15;;
49536;SDS011;74893;30.696;104.058;2024-02-15T13:41:47;10.40;;;6.47;;
49536;SDS011;74893;30.696;104.058;2024-02-15T13:44:13;11.05;;;6.85;;
49536;SDS011;74893;30.696;104.058;2024-02-15T13:46:42;10.25;;;5.90;;
49536;SDS011;74893;30.696;104.058;2024-02-15T13:49:09;10.55;;;6.22;;
49536;SDS011;74893;30.696;104.058;2024-02-15T13:51:38;11.82;;;6.38;;
49536;SDS011;74893;30.696;104.058;2024-02-15T13:54:08;12.25;;;6.50;;
49536;SDS011;74893;30.696;104.058;2024-02-15T13:56:37;11.63;;;6.32;;
49536;SDS011;74893;30.696;104.058;2024-02-15T13:59:05;11.60;;;6.43;;
49536;SDS011;74893;30.696;104.058;2024-02-15T14:01:37;12.25;;;6.30;;
49536;SDS011;74893;30.696;104.058;2024-02-15T14:04:11;12.65;;;6.45;;
49536;SDS011;74893;30.696;104.058;2024-02-15T14:06:42;11.82;;;6.30;;
49536;SDS011;74893;30.696;104.058;2024-02-15T14:09:10;9.88;;;5.85;;
49536;SDS011;74893;30.696;104.058;2024-02-15T14:11:38;12.48;;;6.97;;
49536;SDS011;74893;30.696;104.058;2024-02-15T14:14:07;10.63;;;5.85;;
49536;SDS011;74893;30.696;104.058;2024-02-15T14:16:39;8.73;;;5.80;;
49536;SDS011;74893;30.696;104.058;2024-02-15T14:19:06;11.00;;;5.88;;
49536;SDS011;74893;30.696;104.058;2024-02-15T14:21:34;12.52;;;6.60;;
49536;SDS011;74893;30.696;104.058;2024-02-15T14:24:06;10.60;;;6.05;;
49536;SDS011;74893;30.696;104.058;2024-02-15T14:26:35;13.63;;;6.13;;
49536;SDS011;74893;30.696;104.058;2024-02-15T14:29:05;11.13;;;5.93;;
49536;SDS011;74893;30.696;104.058;2024-02-15T14:31:32;9.95;;;6.18;;
49536;SDS011;74893;30.696;104.058;2024-02-15T14:34:17;7.90;;;5.53;;
49536;SDS011;74893;30.696;104.058;2024-02-15T14:36:45;10.45;;;6.00;;
49536;SDS011;74893;30.696;104.058;2024-02-15T14:39:12;9.77;;;5.78;;
49536;SDS011;74893;30.696;104.058;2024-02-15T14:41:45;10.60;;;5.80;;